Oshawa Airport
CYOO : rendu visible

Aérodrome :











RETROUVEZ-NOUS SUR...

 
LOGIN :

S'inscrire | Disclaimer

   EN    FR    IT 

 









Légende :    VFR   VFR Marginal   IFR   IFR Intensif   IFR Très Intensif
Visi : 
Plafond : 
>= 8 km
>= 3000ft
5 à 8 km
1000 à 3000 ft
1500m à 5 km
500 à 1000 ft
800 à 1500m
200 à 500 ft
< 800m
< 200 ft
Symboles :   Orages  Brouillard  Fortes neiges  Fortes précipitations  Vent > 20 kt






- Altitude de l'aérodrome : 459 ft
- Code IATA : YOO


CYOO - Oshawa

DERNIER METAR :
  • 211609Z AUTO 16007KT 6SM BR OVC021 04/04 A3009 RMK SLP196

METARs EXPIRÉS :
  • 211600Z AUTO 15003KT 100V170 4SM BR OVC021 04/04 A3010 RMK SLP199
  • 211536Z AUTO 11005KT 3SM BR OVC023 03/03 A3011 RMK SLP202
  • 211513Z AUTO 12004KT 2 1/4SM BR OVC023 03/03 A3012 RMK SLP206
  • 211500Z AUTO 10006KT 2 1/4SM BR OVC025 02/02 A3011 RMK PRESFR SLP205
  • 211435Z AUTO 10005KT 3SM BR SCT004 OVC025 02/02 A3014 RMK SLP214
  • 211422Z AUTO 10005KT 3SM BR BKN004 OVC023 02/02 A3014 RMK SLP214
  • 211400Z AUTO 11006KT 3SM BR OVC023 02/02 A3014 RMK SLP213
  • 211346Z AUTO 12006KT 3SM BR OVC023 01/01 A3014 RMK SLP214

TAF AMD TAF CYOO
Valide du 21 à 15h jusqu'au 22 à 02h UTC


211514Z 2115/2202 10005KT 2SM BR OVC020
TEMPO 2115/2117 P6SM NSW OVC030
BECMG 2115/2117 15008KT
FM211700 15008G18KT P6SM BKN020 OVC090
TEMPO 2117/2121 BKN025 OVC090
FM212100 14010KT P6SM SCT020 OVC080
TEMPO 2121/2124 P6SM -SHRA
FM220000 14008KT P6SM -SHRA SCT020 OVC040
TEMPO 2200/2202 5SM -RA BR OVC020 RMK FCST BASED ON AUTO OBS. NXT FCST BY 212000Z



MET'MAP, la Météo Aéronautique d'un coup d'oeil ! - Copyright ORBIFLY Décembre 2007 - Disclaimer

ORBIFLY MET'MAP TEAM :

Programmation & Développement : Alexandra Zaïnal
Conception & Développement : Baudouin d'Aumeries
Co-Programmation & Développement : Marc-Olivier Méhu
Soutien technique & logistique : Manuel Goepfert

Contact : metmap@orbifly.com




SOURCES & CREDITS :

   NOAA       Earth
Advisory